Terminal Aerodrome Forecast
Issued by NWS

Home | Current Version | Previous Version | Text Only | Print | Product List | Glossary On
Versions: 1 2 3 4 5 6 7 8 9 10 11 12 13 14 15
000
FTUS46 KPDT 210500
TAFPSC
TAF
KPSC 210520Z 2106/2206 VRB05KT P6SM BKN200
     FM211500 35005KT P6SM OVC120
     FM220000 33007KT P6SM OVC070=

USA.gov is the U.S. government's official web portal to all federal, state and local government web resources and services.